createdAt,value
2023-05-24T00:00:02.899Z,319.133
2023-05-24T00:01:43.425Z,319.133
2023-05-24T00:03:23.935Z,319.117
2023-05-24T00:05:04.361Z,319.117
2023-05-24T00:06:44.578Z,319.117
2023-05-24T00:08:24.959Z,319.133
2023-05-24T00:10:05.455Z,319.133
2023-05-24T00:11:45.792Z,319.133
2023-05-24T00:13:26.190Z,319.133
2023-05-24T00:15:06.610Z,319.133
2023-05-24T00:16:47.015Z,319.117
2023-05-24T00:18:27.409Z,319.133
2023-05-24T00:20:07.748Z,319.133
2023-05-24T00:21:48.122Z,319.117
2023-05-24T00:23:28.630Z,319.133
2023-05-24T00:25:09.019Z,319.133
2023-05-24T00:26:49.375Z,319.083
2023-05-24T00:28:29.742Z,319.117
2023-05-24T00:30:10.207Z,319.133
2023-05-24T00:31:50.659Z,319.117
2023-05-24T00:33:31.020Z,319.133
2023-05-24T00:35:11.487Z,319.117
2023-05-24T00:36:51.958Z,319.083
2023-05-24T00:38:32.333Z,319.117
2023-05-24T00:40:12.704Z,319.133
2023-05-24T00:41:53.037Z,319.083
2023-05-24T00:43:33.451Z,319.083
2023-05-24T00:45:13.850Z,319.117
2023-05-24T00:46:54.235Z,319.083
2023-05-24T00:48:34.550Z,319.117
2023-05-24T00:50:14.895Z,319.117
2023-05-24T00:51:55.312Z,319.133
2023-05-24T00:53:35.817Z,319.133
2023-05-24T00:55:16.193Z,319.117
2023-05-24T00:56:56.655Z,319.117
2023-05-24T00:58:37.065Z,319.133
2023-05-24T01:00:17.415Z,319.133
2023-05-24T01:01:57.833Z,319.117
2023-05-24T01:03:38.203Z,319.117
2023-05-24T01:05:18.401Z,319.083
2023-05-24T01:06:58.776Z,319.067
2023-05-24T01:08:39.262Z,319.083
2023-05-24T01:10:19.668Z,319.083
2023-05-24T01:12:00.103Z,319.117
2023-05-24T01:13:40.456Z,319.083
2023-05-24T01:15:20.907Z,319.117
2023-05-24T01:17:01.334Z,319.083
2023-05-24T01:18:41.655Z,319.083
2023-05-24T01:20:22.169Z,319.083
2023-05-24T01:22:02.487Z,319.083
2023-05-24T01:23:42.923Z,319.083
2023-05-24T01:25:23.379Z,319.083
2023-05-24T01:27:03.851Z,319.117
2023-05-24T01:28:44.332Z,319.133
2023-05-24T01:30:24.767Z,319.083
2023-05-24T01:32:05.122Z,319.117
2023-05-24T01:33:45.429Z,319.133
2023-05-24T01:35:25.803Z,319.117
2023-05-24T01:37:06.216Z,319.117
2023-05-24T01:38:46.655Z,319.117
2023-05-24T01:40:27.100Z,319.067
2023-05-24T01:42:07.450Z,319.117
2023-05-24T01:43:47.871Z,319.067
2023-05-24T01:45:28.335Z,319.083
2023-05-24T01:47:08.878Z,319.083
2023-05-24T01:48:49.182Z,319.117
2023-05-24T01:50:29.605Z,319.083
2023-05-24T01:52:10.100Z,319.083
2023-05-24T01:53:50.489Z,319.083
2023-05-24T01:55:30.850Z,319.083
2023-05-24T01:57:11.336Z,319.083
2023-05-24T01:58:51.761Z,319.083
2023-05-24T02:00:32.170Z,319.117
2023-05-24T02:02:12.675Z,319.117
2023-05-24T02:03:53.036Z,319.083
2023-05-24T02:05:33.595Z,319.083
2023-05-24T02:07:14.028Z,319.033
2023-05-24T02:08:54.385Z,319.083
2023-05-24T02:10:34.755Z,319.117
2023-05-24T02:12:15.232Z,319.083
2023-05-24T02:13:55.607Z,319.083
2023-05-24T02:15:36.065Z,319.083
2023-05-24T02:17:16.457Z,319.083
2023-05-24T02:18:56.981Z,319.117
2023-05-24T02:20:37.702Z,319.083
2023-05-24T02:22:17.784Z,319.083
2023-05-24T02:23:58.291Z,319.067
2023-05-24T02:25:38.599Z,319.117
2023-05-24T02:27:19.086Z,319.083
2023-05-24T02:28:59.481Z,319.067
2023-05-24T02:30:40.062Z,319.083
2023-05-24T02:32:20.242Z,319.083
2023-05-24T02:34:00.667Z,319.067
2023-05-24T02:35:40.999Z,319.083
2023-05-24T02:37:21.435Z,319.117
2023-05-24T02:39:01.812Z,319.117
2023-05-24T02:40:42.395Z,319.083
2023-05-24T02:42:22.637Z,319.067
2023-05-24T02:44:03.159Z,319.083
2023-05-24T02:45:43.482Z,319.083
2023-05-24T02:47:23.900Z,319.017
2023-05-24T02:49:04.274Z,319.017
2023-05-24T02:50:44.826Z,319.017
2023-05-24T02:52:25.053Z,319.017
2023-05-24T02:54:05.483Z,319.017
2023-05-24T02:55:45.932Z,319.083
2023-05-24T02:57:26.408Z,319.017
2023-05-24T02:59:06.854Z,319.017
2023-05-24T03:00:47.236Z,319
2023-05-24T03:02:27.799Z,319.033
2023-05-24T03:04:08.280Z,319.033
2023-05-24T03:05:48.652Z,319
2023-05-24T03:07:29.078Z,319
2023-05-24T03:09:09.465Z,319
2023-05-24T03:10:49.798Z,319
2023-05-24T03:12:30.230Z,319
2023-05-24T03:14:10.458Z,319
2023-05-24T03:15:50.994Z,319
2023-05-24T03:17:31.383Z,318.967
2023-05-24T03:19:11.784Z,319
2023-05-24T03:20:52.147Z,319
2023-05-24T03:22:32.604Z,318.917
2023-05-24T03:24:12.956Z,318.95
2023-05-24T03:25:53.368Z,318.967
2023-05-24T03:27:33.752Z,319
2023-05-24T03:29:14.161Z,318.967
2023-05-24T03:30:54.540Z,318.95
2023-05-24T03:32:35.006Z,318.95
2023-05-24T03:34:15.356Z,318.967
2023-05-24T03:35:55.737Z,318.95
2023-05-24T03:37:36.157Z,318.95
2023-05-24T03:39:16.539Z,318.917
2023-05-24T03:40:57.005Z,318.917
2023-05-24T03:42:37.542Z,318.9
2023-05-24T03:44:17.841Z,318.917
2023-05-24T03:45:58.261Z,318.95
2023-05-24T03:47:38.649Z,318.9
2023-05-24T03:49:18.994Z,318.917
2023-05-24T03:50:59.470Z,318.917
2023-05-24T03:52:39.850Z,318.9
2023-05-24T03:54:20.270Z,318.917
2023-05-24T03:56:00.699Z,318.917
2023-05-24T03:57:41.159Z,318.917
2023-05-24T03:59:21.542Z,318.917
2023-05-24T04:01:01.726Z,318.917
2023-05-24T04:02:42.389Z,318.917
2023-05-24T04:04:22.540Z,318.9
2023-05-24T04:06:02.909Z,318.95
2023-05-24T04:07:43.399Z,318.9
2023-05-24T04:09:23.806Z,318.867
2023-05-24T04:11:04.162Z,318.9
2023-05-24T04:12:44.641Z,318.9
2023-05-24T04:14:24.975Z,318.9
2023-05-24T04:16:05.338Z,318.9
2023-05-24T04:17:45.813Z,318.867
2023-05-24T04:19:26.074Z,318.867
2023-05-24T04:21:06.514Z,318.867
2023-05-24T04:22:46.907Z,318.867
2023-05-24T04:24:27.268Z,318.867
2023-05-24T04:26:07.653Z,318.9
2023-05-24T04:27:48.119Z,318.85
2023-05-24T04:29:28.591Z,318.867
2023-05-24T04:31:08.955Z,318.867
2023-05-24T04:32:49.452Z,318.833
2023-05-24T04:34:29.767Z,318.833
2023-05-24T04:36:10.101Z,318.833
2023-05-24T04:37:50.557Z,318.833
2023-05-24T04:39:30.933Z,318.8
2023-05-24T04:41:11.425Z,318.8
2023-05-24T04:42:51.836Z,318.833
2023-05-24T04:44:32.305Z,318.833
2023-05-24T04:46:12.724Z,318.8
2023-05-24T04:47:53.132Z,318.833
2023-05-24T04:49:33.422Z,318.8
2023-05-24T04:51:13.974Z,318.833
2023-05-24T04:52:54.409Z,318.833
2023-05-24T04:54:34.868Z,318.8
2023-05-24T04:56:15.268Z,318.8
2023-05-24T04:57:55.700Z,318.783
2023-05-24T04:59:36.176Z,318.783
2023-05-24T05:01:16.603Z,318.75
2023-05-24T05:02:57.065Z,318.783
2023-05-24T05:04:37.318Z,318.8
2023-05-24T05:06:17.743Z,318.783
2023-05-24T05:07:58.266Z,318.75
2023-05-24T05:09:38.569Z,318.75
2023-05-24T05:11:18.989Z,318.783
2023-05-24T05:12:59.476Z,318.75
2023-05-24T05:14:39.833Z,318.75
2023-05-24T05:16:20.232Z,318.8
2023-05-24T05:18:00.672Z,318.8
2023-05-24T05:19:41.069Z,318.75
2023-05-24T05:21:21.466Z,318.75
2023-05-24T05:23:01.920Z,318.75
2023-05-24T05:24:42.348Z,318.75
2023-05-24T05:26:22.854Z,318.75
2023-05-24T05:28:03.235Z,318.733
2023-05-24T05:29:43.721Z,318.733
2023-05-24T05:31:24.194Z,318.7
2023-05-24T05:33:04.701Z,318.75
2023-05-24T05:34:45.020Z,318.75
2023-05-24T05:36:25.475Z,318.75
2023-05-24T05:38:05.858Z,318.75
2023-05-24T05:39:46.259Z,318.75
2023-05-24T05:41:26.764Z,318.733
2023-05-24T05:43:07.170Z,318.75
2023-05-24T05:44:47.558Z,318.733
2023-05-24T05:46:28.015Z,318.75
2023-05-24T05:48:08.431Z,318.75
2023-05-24T05:49:48.758Z,318.733
2023-05-24T05:51:29.172Z,318.7
2023-05-24T05:53:09.586Z,318.7
2023-05-24T05:54:50.055Z,318.683
2023-05-24T05:56:30.461Z,318.7
2023-05-24T05:58:10.791Z,318.7
2023-05-24T05:59:51.187Z,318.733
2023-05-24T06:01:31.650Z,318.7
2023-05-24T06:03:12.159Z,318.683
2023-05-24T06:04:52.590Z,318.667
2023-05-24T06:06:32.832Z,318.667
2023-05-24T06:08:13.293Z,318.683
2023-05-24T06:09:53.752Z,318.683
2023-05-24T06:11:34.146Z,318.683
2023-05-24T06:13:14.562Z,318.683
2023-05-24T06:14:54.929Z,318.683
2023-05-24T06:16:35.441Z,318.683
2023-05-24T06:18:15.742Z,318.683
2023-05-24T06:19:56.245Z,318.683
2023-05-24T06:21:36.831Z,318.683
2023-05-24T06:23:17.071Z,318.683
2023-05-24T06:24:57.459Z,318.667
2023-05-24T06:26:37.822Z,318.667
2023-05-24T06:28:18.265Z,318.667
2023-05-24T06:29:58.697Z,318.667
2023-05-24T06:31:39.001Z,318.667
2023-05-24T06:33:19.465Z,318.633
2023-05-24T06:34:59.870Z,318.633
2023-05-24T06:36:40.269Z,318.667
2023-05-24T06:38:20.741Z,318.667
2023-05-24T06:40:01.254Z,318.633
2023-05-24T06:41:41.580Z,318.667
2023-05-24T06:43:22.106Z,318.633
2023-05-24T06:45:02.577Z,318.633
2023-05-24T06:46:43.018Z,318.667
2023-05-24T06:48:23.459Z,318.667
2023-05-24T06:50:03.876Z,318.617
2023-05-24T06:51:44.579Z,318.667
2023-05-24T06:53:24.759Z,318.633
2023-05-24T06:55:05.188Z,318.583
2023-05-24T06:56:45.703Z,318.583
2023-05-24T06:58:26.043Z,318.567
2023-05-24T07:00:06.380Z,318.583
2023-05-24T07:01:46.893Z,318.583
2023-05-24T07:03:27.130Z,318.583
2023-05-24T07:05:07.598Z,318.583
2023-05-24T07:06:47.978Z,318.567
2023-05-24T07:08:28.372Z,318.583
2023-05-24T07:10:08.825Z,318.617
2023-05-24T07:11:49.239Z,318.567
2023-05-24T07:13:29.659Z,318.567
2023-05-24T07:15:10.083Z,318.583
2023-05-24T07:16:50.553Z,318.583
2023-05-24T07:18:30.902Z,318.583
2023-05-24T07:20:11.346Z,318.567
2023-05-24T07:21:51.624Z,318.583
2023-05-24T07:23:32.019Z,318.583
2023-05-24T07:25:12.447Z,318.583
2023-05-24T07:26:52.837Z,318.617
2023-05-24T07:28:33.267Z,318.583
2023-05-24T07:30:27.610Z,318.617
2023-05-24T07:31:54.060Z,318.533
2023-05-24T07:33:34.575Z,318.583
2023-05-24T07:35:14.877Z,318.583
2023-05-24T07:36:55.280Z,318.583
2023-05-24T07:38:35.679Z,318.583
2023-05-24T07:40:16.049Z,318.533
2023-05-24T07:41:56.472Z,318.533
2023-05-24T07:43:36.904Z,318.583
2023-05-24T07:45:17.285Z,318.533
2023-05-24T07:46:57.767Z,318.533
2023-05-24T07:48:38.187Z,318.567
2023-05-24T07:50:18.628Z,318.533
2023-05-24T07:51:58.989Z,318.533
2023-05-24T07:53:39.383Z,318.567
2023-05-24T07:55:19.800Z,318.567
2023-05-24T07:57:00.341Z,318.533
2023-05-24T07:58:40.806Z,318.533
2023-05-24T08:00:21.204Z,318.533
2023-05-24T08:02:01.754Z,318.533
2023-05-24T08:03:42.109Z,318.533
2023-05-24T08:05:22.446Z,318.517
2023-05-24T08:07:02.929Z,318.517
2023-05-24T08:08:43.328Z,318.533
2023-05-24T08:10:23.772Z,318.533
2023-05-24T08:12:04.201Z,318.533
2023-05-24T08:13:44.633Z,318.533
2023-05-24T08:15:25.164Z,318.567
2023-05-24T08:17:05.412Z,318.567
2023-05-24T08:18:45.886Z,318.533
2023-05-24T08:20:26.331Z,318.533
2023-05-24T08:22:06.557Z,318.533
2023-05-24T08:23:47.044Z,318.517
2023-05-24T08:25:27.496Z,318.533
2023-05-24T08:27:07.908Z,318.517
2023-05-24T08:28:48.370Z,318.517
2023-05-24T08:30:28.744Z,318.517
2023-05-24T08:32:09.262Z,318.517
2023-05-24T08:33:49.520Z,318.517
2023-05-24T08:35:29.965Z,318.517
2023-05-24T08:37:10.445Z,318.5
2023-05-24T08:38:50.874Z,318.5
2023-05-24T08:40:31.251Z,318.5
2023-05-24T08:42:11.669Z,318.533
2023-05-24T08:43:52.042Z,318.517
2023-05-24T08:45:32.478Z,318.5
2023-05-24T08:47:12.905Z,318.533
2023-05-24T08:48:53.519Z,318.517
2023-05-24T08:50:33.824Z,318.5
2023-05-24T08:52:14.199Z,318.467
2023-05-24T08:53:54.622Z,318.5
2023-05-24T08:55:35.140Z,318.467
2023-05-24T08:57:15.553Z,318.517
2023-05-24T08:58:55.989Z,318.467
2023-05-24T09:00:36.419Z,318.45
2023-05-24T09:02:16.857Z,318.467
2023-05-24T09:03:57.321Z,318.467
2023-05-24T09:05:37.844Z,318.45
2023-05-24T09:07:18.258Z,318.467
2023-05-24T09:08:58.632Z,318.45
2023-05-24T09:10:53.080Z,318.45
2023-05-24T09:12:32.567Z,318.467
2023-05-24T09:13:59.948Z,318.45
2023-05-24T09:15:40.534Z,318.45
2023-05-24T09:17:20.818Z,318.45
2023-05-24T09:19:01.295Z,318.45
2023-05-24T09:20:41.935Z,318.467
2023-05-24T09:22:22.093Z,318.45
2023-05-24T09:24:02.650Z,318.417
2023-05-24T09:25:43.090Z,318.45
2023-05-24T09:27:23.465Z,318.45
2023-05-24T09:29:03.863Z,318.45
2023-05-24T09:30:44.434Z,318.45
2023-05-24T09:32:24.856Z,318.417
2023-05-24T09:34:05.028Z,318.467
2023-05-24T09:35:45.408Z,318.467
2023-05-24T09:37:29.051Z,318.5
2023-05-24T09:39:06.233Z,318.467
2023-05-24T09:40:46.667Z,318.5
2023-05-24T09:42:27.005Z,318.45
2023-05-24T09:44:07.426Z,318.4
2023-05-24T09:45:47.817Z,318.45
2023-05-24T09:47:28.248Z,318.467
2023-05-24T09:49:08.721Z,318.417
2023-05-24T09:50:49.097Z,318.417
2023-05-24T09:52:29.427Z,318.417
2023-05-24T09:54:09.911Z,318.417
2023-05-24T09:55:50.341Z,318.417
2023-05-24T09:57:30.865Z,318.333
2023-05-24T09:59:11.227Z,318.383
2023-05-24T10:00:51.651Z,318.35
2023-05-24T10:02:41.482Z,318.35
2023-05-24T10:04:12.565Z,318.383
2023-05-24T10:05:52.877Z,318.35
2023-05-24T10:07:33.301Z,318.35
2023-05-24T10:09:13.629Z,318.333
2023-05-24T10:10:54.119Z,318.333
2023-05-24T10:12:34.514Z,318.35
2023-05-24T10:14:14.909Z,318.35
2023-05-24T10:15:55.325Z,318.383
2023-05-24T10:17:35.754Z,318.383
2023-05-24T10:19:16.191Z,318.35
2023-05-24T10:20:56.738Z,318.35
2023-05-24T10:22:36.973Z,318.333
2023-05-24T10:24:17.549Z,318.3
2023-05-24T10:25:57.947Z,318.3
2023-05-24T10:27:38.299Z,318.3
2023-05-24T10:29:18.771Z,318.333
2023-05-24T10:30:59.256Z,318.283
2023-05-24T10:32:39.733Z,318.333
2023-05-24T10:34:20.116Z,318.333
2023-05-24T10:36:00.470Z,318.333
2023-05-24T10:37:40.909Z,318.333
2023-05-24T10:39:21.333Z,318.333
2023-05-24T10:41:01.719Z,318.35
2023-05-24T10:42:42.094Z,318.333
2023-05-24T10:44:22.444Z,318.333
2023-05-24T10:46:02.938Z,318.35
2023-05-24T10:47:43.310Z,318.3
2023-05-24T10:49:23.722Z,318.3
2023-05-24T10:51:04.089Z,318.3
2023-05-24T10:52:44.496Z,318.3
2023-05-24T10:54:24.947Z,318.283
2023-05-24T10:56:05.382Z,318.3
2023-05-24T10:57:45.773Z,318.283
2023-05-24T10:59:26.228Z,318.3
2023-05-24T11:01:06.662Z,318.333
2023-05-24T11:02:47.168Z,318.3
2023-05-24T11:04:27.461Z,318.283
2023-05-24T11:06:08.036Z,318.283
2023-05-24T11:07:48.415Z,318.3
2023-05-24T11:09:28.853Z,318.283
2023-05-24T11:11:23.275Z,318.25
2023-05-24T11:12:49.682Z,318.25
2023-05-24T11:14:30.173Z,318.25
2023-05-24T11:16:10.659Z,318.25
2023-05-24T11:17:50.988Z,318.25
2023-05-24T11:19:31.398Z,318.25
2023-05-24T11:21:11.850Z,318.233
2023-05-24T11:22:52.303Z,318.25
2023-05-24T11:24:32.713Z,318.25
2023-05-24T11:26:13.127Z,318.333
2023-05-24T11:27:53.606Z,318.25
2023-05-24T11:29:36.070Z,318.25
2023-05-24T11:31:14.542Z,318.283
2023-05-24T11:32:54.927Z,318.25
2023-05-24T11:34:35.385Z,318.25
2023-05-24T11:36:15.767Z,318.283
2023-05-24T11:37:56.209Z,318.25
2023-05-24T11:39:36.632Z,318.25
2023-05-24T11:41:16.977Z,318.25
2023-05-24T11:42:57.403Z,318.25
2023-05-24T11:44:37.730Z,318.25
2023-05-24T11:46:18.162Z,318.25
2023-05-24T11:47:58.628Z,318.283
2023-05-24T11:49:39.022Z,318.233
2023-05-24T11:51:19.461Z,318.233
2023-05-24T11:52:59.841Z,318.25
2023-05-24T11:54:40.209Z,318.25
2023-05-24T11:56:20.670Z,318.233
2023-05-24T11:58:01.069Z,318.25
2023-05-24T11:59:41.459Z,318.25
2023-05-24T12:01:21.952Z,318.217
2023-05-24T12:03:02.419Z,318.217
2023-05-24T12:04:42.849Z,318.233
2023-05-24T12:06:23.199Z,318.233
2023-05-24T12:08:03.593Z,318.183
2023-05-24T12:09:44.027Z,318.233
2023-05-24T12:11:24.364Z,318.183
2023-05-24T12:13:04.824Z,318.217
2023-05-24T12:14:45.247Z,318.217
2023-05-24T12:16:25.698Z,318.217
2023-05-24T12:18:06.087Z,318.233
2023-05-24T12:19:46.550Z,318.233
2023-05-24T12:21:26.937Z,318.217
2023-05-24T12:23:07.346Z,318.183
2023-05-24T12:24:47.755Z,318.217
2023-05-24T12:26:28.089Z,318.183
2023-05-24T12:28:08.577Z,318.183
2023-05-24T12:29:49.018Z,318.217
2023-05-24T12:31:29.439Z,318.183
2023-05-24T12:33:09.824Z,318.217
2023-05-24T12:34:50.174Z,318.183
2023-05-24T12:36:30.548Z,318.217
2023-05-24T12:38:10.914Z,318.183
2023-05-24T12:39:53.789Z,318.183
2023-05-24T12:41:31.724Z,318.183
2023-05-24T12:43:12.167Z,318.183
2023-05-24T12:44:52.510Z,318.183
2023-05-24T12:46:32.903Z,318.217
2023-05-24T12:48:13.311Z,318.183
2023-05-24T12:49:53.712Z,318.167
2023-05-24T12:51:34.097Z,318.183
2023-05-24T12:53:14.464Z,318.183
2023-05-24T12:54:54.912Z,318.217
2023-05-24T12:56:35.315Z,318.233
2023-05-24T12:58:15.730Z,318.217
2023-05-24T12:59:56.225Z,318.233
2023-05-24T13:01:36.850Z,318.217
2023-05-24T13:03:17.220Z,318.233
2023-05-24T13:04:57.664Z,318.233
2023-05-24T13:06:38.049Z,318.233
2023-05-24T13:08:18.443Z,318.233
2023-05-24T13:09:58.871Z,318.217
2023-05-24T13:11:39.407Z,318.233
2023-05-24T13:13:19.714Z,318.183
2023-05-24T13:15:00.171Z,318.217
2023-05-24T13:16:40.536Z,318.217
2023-05-24T13:18:20.989Z,318.217
2023-05-24T13:20:01.325Z,318.233
2023-05-24T13:21:41.832Z,318.217
2023-05-24T13:23:22.070Z,318.217
2023-05-24T13:25:02.459Z,318.217
2023-05-24T13:26:42.919Z,318.233
2023-05-24T13:28:23.322Z,318.233
2023-05-24T13:30:03.752Z,318.183
2023-05-24T13:31:44.486Z,318.183
2023-05-24T13:33:24.664Z,318.183
2023-05-24T13:35:08.178Z,318.183
2023-05-24T13:36:45.490Z,318.183
2023-05-24T13:38:25.856Z,318.183
2023-05-24T13:40:06.413Z,318.217
2023-05-24T13:41:46.806Z,318.183
2023-05-24T13:43:27.167Z,318.183
2023-05-24T13:45:07.647Z,318.183
2023-05-24T13:46:48.063Z,318.217
2023-05-24T13:48:28.595Z,318.217
2023-05-24T13:50:08.905Z,318.183
2023-05-24T13:51:49.300Z,318.183
2023-05-24T13:53:29.690Z,318.217
2023-05-24T13:55:10.179Z,318.183
2023-05-24T13:56:50.590Z,318.217
2023-05-24T13:58:30.989Z,318.217
2023-05-24T14:00:11.396Z,318.183
2023-05-24T14:01:51.839Z,318.217
2023-05-24T14:03:32.217Z,318.183
2023-05-24T14:06:53.152Z,318.167
2023-05-24T14:08:33.532Z,318.133
2023-05-24T14:10:14.046Z,318.117
2023-05-24T14:11:54.434Z,318.133
2023-05-24T14:15:15.424Z,318.133
2023-05-24T14:16:55.871Z,318.133
2023-05-24T14:18:36.242Z,318.117
2023-05-24T14:20:16.745Z,318.133
2023-05-24T14:21:57.148Z,318.133
2023-05-24T14:23:37.559Z,318.133
2023-05-24T14:25:17.948Z,318.133
2023-05-24T14:26:58.350Z,318.083
2023-05-24T14:28:38.818Z,318.083
2023-05-24T14:30:19.186Z,318.067
2023-05-24T14:31:59.656Z,318.05
2023-05-24T14:33:39.896Z,318.067
2023-05-24T14:35:20.293Z,318.05
2023-05-24T14:37:00.778Z,318.05
2023-05-24T14:38:41.185Z,318.05
2023-05-24T14:40:21.699Z,318.067
2023-05-24T14:42:02.117Z,318.05
2023-05-24T14:43:42.526Z,318.067
2023-05-24T14:45:22.924Z,318.067
2023-05-24T14:47:03.367Z,318.067
2023-05-24T14:48:43.773Z,318.067
2023-05-24T14:50:24.294Z,318.05
2023-05-24T14:52:04.657Z,318.05
2023-05-24T14:53:45.158Z,318.05
2023-05-24T14:55:25.541Z,318.083
2023-05-24T14:57:05.807Z,318.083
2023-05-24T14:58:46.170Z,318.067
2023-05-24T15:00:41.283Z,318.067
2023-05-24T15:02:07.088Z,318.067
2023-05-24T15:03:47.572Z,318.083
2023-05-24T15:05:27.883Z,318.05
2023-05-24T15:07:08.305Z,318.05
2023-05-24T15:08:48.754Z,318.067
2023-05-24T15:10:29.238Z,318.05
2023-05-24T15:12:09.676Z,318.05
2023-05-24T15:13:50.088Z,318.05
2023-05-24T15:15:30.542Z,318.067
2023-05-24T15:17:11.002Z,318.067
2023-05-24T15:18:51.409Z,318.05
2023-05-24T15:20:31.783Z,318.05
2023-05-24T15:22:12.240Z,318.05
2023-05-24T15:23:52.590Z,318.017
2023-05-24T15:25:33.048Z,318.05
2023-05-24T15:27:13.462Z,318.05
2023-05-24T15:28:53.931Z,318.017
2023-05-24T15:30:34.367Z,318.017
2023-05-24T15:32:14.815Z,318
2023-05-24T15:33:55.279Z,318
2023-05-24T15:35:35.657Z,318
2023-05-24T15:37:16.024Z,318.05
2023-05-24T15:38:56.420Z,318.017
2023-05-24T15:40:36.804Z,318.017
2023-05-24T15:42:17.227Z,318.017
2023-05-24T15:43:57.649Z,318.05
2023-05-24T15:45:38.126Z,318.017
2023-05-24T15:47:21.177Z,318.017
2023-05-24T15:48:58.948Z,318.017
2023-05-24T15:50:59.772Z,318
2023-05-24T15:52:19.764Z,318.05
2023-05-24T15:54:00.039Z,318.017
2023-05-24T15:55:40.422Z,318.05
2023-05-24T15:57:20.886Z,318.05
2023-05-24T15:59:01.242Z,318.05
2023-05-24T16:00:41.863Z,318.017
2023-05-24T16:02:22.245Z,318.05
2023-05-24T16:04:02.552Z,318.017
2023-05-24T16:05:42.950Z,318.017
2023-05-24T16:07:23.371Z,318.05
2023-05-24T16:09:03.799Z,318.05
2023-05-24T16:10:44.392Z,318.017
2023-05-24T16:12:26.122Z,318.05
2023-05-24T16:14:04.984Z,317.967
2023-05-24T16:15:45.396Z,318
2023-05-24T16:17:25.729Z,318
2023-05-24T16:19:06.126Z,318
2023-05-24T16:20:46.883Z,318.017
2023-05-24T16:22:26.873Z,318
2023-05-24T16:24:07.318Z,317.967
2023-05-24T16:25:47.708Z,318.017
2023-05-24T16:27:28.086Z,318
2023-05-24T16:29:08.478Z,318
2023-05-24T16:30:48.985Z,318
2023-05-24T16:32:29.602Z,318
2023-05-24T16:34:09.769Z,317.967
2023-05-24T16:35:50.141Z,318.017
2023-05-24T16:37:30.550Z,318
2023-05-24T16:39:11.020Z,317.967
2023-05-24T16:40:51.481Z,318
2023-05-24T16:42:31.882Z,317.967
2023-05-24T16:44:12.350Z,317.967
2023-05-24T16:45:52.874Z,317.967
2023-05-24T16:47:33.268Z,317.967
2023-05-24T16:49:13.567Z,317.95
2023-05-24T16:50:53.941Z,317.917
2023-05-24T16:52:34.394Z,318
2023-05-24T16:54:14.888Z,318
2023-05-24T16:55:55.290Z,318
2023-05-24T16:57:35.801Z,317.967
2023-05-24T16:59:16.203Z,317.95
2023-05-24T17:00:56.650Z,317.917
2023-05-24T17:02:37.233Z,317.917
2023-05-24T17:04:17.551Z,317.917
2023-05-24T17:06:00.131Z,317.917
2023-05-24T17:07:38.376Z,317.917
2023-05-24T17:09:18.812Z,317.9
2023-05-24T17:10:59.231Z,317.9
2023-05-24T17:12:39.560Z,317.917
2023-05-24T17:14:19.952Z,317.917
2023-05-24T17:16:00.802Z,317.917
2023-05-24T17:17:40.971Z,317.9
2023-05-24T17:19:21.379Z,317.883
2023-05-24T17:21:01.834Z,317.883
2023-05-24T17:22:42.345Z,317.883
2023-05-24T17:24:22.816Z,317.9
2023-05-24T17:26:03.286Z,317.883
2023-05-24T17:27:43.696Z,317.9
2023-05-24T17:29:24.258Z,317.85
2023-05-24T17:31:04.611Z,317.85
2023-05-24T17:32:45.052Z,317.833
2023-05-24T17:34:32.915Z,317.883
2023-05-24T17:36:13.323Z,317.883
2023-05-24T17:37:53.737Z,317.85
2023-05-24T17:39:34.237Z,317.85
2023-05-24T17:41:14.686Z,317.85
2023-05-24T17:42:55.163Z,317.833
2023-05-24T17:44:35.632Z,317.833
2023-05-24T17:46:16.155Z,317.8
2023-05-24T17:47:56.644Z,317.8
2023-05-24T17:49:37.069Z,317.833
2023-05-24T17:51:17.514Z,317.8
2023-05-24T17:52:57.885Z,317.8
2023-05-24T17:54:38.340Z,317.8
2023-05-24T17:56:18.771Z,317.833
2023-05-24T17:57:59.202Z,317.833
2023-05-24T17:59:39.552Z,317.833
2023-05-24T18:01:19.918Z,317.833
2023-05-24T18:03:00.382Z,317.8
2023-05-24T18:04:40.982Z,317.8
2023-05-24T18:06:21.386Z,317.833
2023-05-24T18:08:01.866Z,317.833
2023-05-24T18:09:42.343Z,317.833
2023-05-24T18:11:22.760Z,317.833
2023-05-24T18:13:03.243Z,317.8
2023-05-24T18:14:43.688Z,317.783
2023-05-24T18:16:24.144Z,317.8
2023-05-24T18:18:04.691Z,317.8
2023-05-24T18:19:45.195Z,317.783
2023-05-24T18:21:25.470Z,317.783
2023-05-24T18:23:05.962Z,317.75
2023-05-24T18:24:46.418Z,317.783
2023-05-24T18:26:26.958Z,317.783
2023-05-24T18:28:07.412Z,317.783
2023-05-24T18:29:47.902Z,317.75
2023-05-24T18:31:28.417Z,317.783
2023-05-24T18:33:09.014Z,317.75
2023-05-24T18:34:49.264Z,317.733
2023-05-24T18:36:29.693Z,317.75
2023-05-24T18:38:10.070Z,317.75
2023-05-24T18:39:50.591Z,317.733
2023-05-24T18:41:30.968Z,317.75
2023-05-24T18:43:11.403Z,317.733
2023-05-24T18:44:51.702Z,317.75
2023-05-24T18:46:32.112Z,317.733
2023-05-24T18:48:12.514Z,317.75
2023-05-24T18:49:52.906Z,317.717
2023-05-24T18:51:33.261Z,317.683
2023-05-24T18:53:13.725Z,317.717
2023-05-24T18:54:54.159Z,317.683
2023-05-24T18:56:34.534Z,317.717
2023-05-24T18:58:15.083Z,317.717
2023-05-24T18:59:55.588Z,317.683
2023-05-24T19:01:36.104Z,317.633
2023-05-24T19:03:16.518Z,317.683
2023-05-24T19:04:56.921Z,317.667
2023-05-24T19:06:37.293Z,317.633
2023-05-24T19:08:17.602Z,317.667
2023-05-24T19:09:57.897Z,317.667
2023-05-24T19:11:38.201Z,317.667
2023-05-24T19:13:18.632Z,317.633
2023-05-24T19:14:59.028Z,317.667
2023-05-24T19:16:39.497Z,317.633
2023-05-24T19:18:19.850Z,317.633
2023-05-24T19:20:00.374Z,317.683
2023-05-24T19:21:40.795Z,317.617
2023-05-24T19:23:21.286Z,317.617
2023-05-24T19:25:01.565Z,317.617
2023-05-24T19:26:41.958Z,317.633
2023-05-24T19:28:22.228Z,317.617
2023-05-24T19:30:02.646Z,317.633
2023-05-24T19:31:43.068Z,317.617
2023-05-24T19:33:23.407Z,317.583
2023-05-24T19:35:03.872Z,317.567
2023-05-24T19:36:44.215Z,317.567
2023-05-24T19:38:24.581Z,317.567
2023-05-24T19:40:05.014Z,317.583
2023-05-24T19:41:45.532Z,317.583
2023-05-24T19:43:25.893Z,317.583
2023-05-24T19:45:06.293Z,317.583
2023-05-24T19:46:46.474Z,317.567
2023-05-24T19:48:26.779Z,317.583
2023-05-24T19:50:07.089Z,317.583
2023-05-24T19:51:47.397Z,317.583
2023-05-24T19:53:27.745Z,317.567
2023-05-24T19:55:08.105Z,317.567
2023-05-24T19:56:48.596Z,317.567
2023-05-24T19:58:28.998Z,317.55
2023-05-24T20:00:09.415Z,317.55
2023-05-24T20:01:49.918Z,317.55
2023-05-24T20:03:30.447Z,317.567
2023-05-24T20:05:10.768Z,317.55
2023-05-24T20:06:51.198Z,317.55
2023-05-24T20:08:31.575Z,317.55
2023-05-24T20:10:11.988Z,317.55
2023-05-24T20:11:52.335Z,317.567
2023-05-24T20:13:32.774Z,317.567
2023-05-24T20:15:13.157Z,317.55
2023-05-24T20:16:53.516Z,317.517
2023-05-24T20:18:33.923Z,317.517
2023-05-24T20:20:14.555Z,317.517
2023-05-24T20:21:54.810Z,317.517
2023-05-24T20:23:35.184Z,317.517
2023-05-24T20:25:15.589Z,317.5
2023-05-24T20:26:55.882Z,317.55
2023-05-24T20:28:36.191Z,317.517
2023-05-24T20:30:16.471Z,317.517
2023-05-24T20:31:56.930Z,317.517
2023-05-24T20:33:37.214Z,317.517
2023-05-24T20:35:17.672Z,317.5